Time;durP1;ratioP1;P1;durP2;ratioP2;P2;SDS_P1;SDS_P2;PMS_P1;PMS_P2;Temp;Humidity;BMP_temperature;BMP_pressure;BME280_temperature;BME280_humidity;BME280_pressure;Samples;Min_cycle;Max_cycle;Signal;HPM_P1;HPM_P2
2024/01/01 00:00:16;;;;;;;3.38;2.47;;;21.60;99.90;;;;;;5012985;28;20382;-51
2024/01/01 00:02:42;;;;;;;3.03;1.83;;;21.50;99.90;;;;;;5012363;28;20050;-51
2024/01/01 00:05:08;;;;;;;4.72;2.83;;;21.50;99.90;;;;;;5012671;28;20030;-51
2024/01/01 00:07:34;;;;;;;2.60;1.90;;;21.50;99.90;;;;;;5012420;28;20025;-51
2024/01/01 00:10:00;;;;;;;3.67;2.20;;;21.50;99.90;;;;;;5012570;28;20314;-51
2024/01/01 00:12:27;;;;;;;2.15;1.95;;;21.50;99.90;;;;;;5012416;28;20081;-51
2024/01/01 00:14:52;;;;;;;3.63;2.13;;;21.50;99.90;;;;;;5011322;28;20039;-50
2024/01/01 00:17:18;;;;;;;5.07;2.40;;;21.40;99.90;;;;;;5012517;28;20022;-52
2024/01/01 00:19:44;;;;;;;3.17;2.00;;;21.50;99.90;;;;;;5012812;28;20360;-51
2024/01/01 00:22:10;;;;;;;2.38;1.90;;;21.50;99.90;;;;;;5012310;28;20026;-51
2024/01/01 00:24:36;;;;;;;3.00;2.20;;;21.40;99.90;;;;;;5012513;28;20072;-51
2024/01/01 00:27:02;;;;;;;2.10;1.77;;;21.40;99.90;;;;;;5012529;28;20386;-51
2024/01/01 00:29:28;;;;;;;3.33;2.30;;;21.40;99.90;;;;;;5012414;28;20015;-51
2024/01/01 00:31:54;;;;;;;2.60;2.03;;;21.40;99.90;;;;;;5012160;28;20386;-51
2024/01/01 00:34:21;;;;;;;3.33;2.17;;;21.40;99.90;;;;;;5012329;28;20030;-51
2024/01/01 00:36:48;;;;;;;3.33;2.40;;;21.40;99.90;;;;;;5011879;28;20018;-51
2024/01/01 00:39:13;;;;;;;3.40;2.38;;;21.40;99.90;;;;;;5012252;28;20049;-51
2024/01/01 00:41:39;;;;;;;2.63;2.20;;;21.40;99.90;;;;;;5012134;28;20497;-50
2024/01/01 00:44:05;;;;;;;2.30;1.85;;;21.30;99.90;;;;;;5010961;28;20032;-50
2024/01/01 00:46:31;;;;;;;3.78;1.67;;;21.30;99.90;;;;;;5012210;28;20541;-50
2024/01/01 00:48:57;;;;;;;2.67;1.70;;;21.30;99.90;;;;;;5012212;28;20359;-50
2024/01/01 00:51:23;;;;;;;3.05;2.35;;;21.30;99.90;;;;;;5012171;28;20036;-51
2024/01/01 00:53:49;;;;;;;3.15;2.40;;;21.30;99.90;;;;;;5012290;28;20038;-51
2024/01/01 00:56:15;;;;;;;3.08;2.42;;;21.30;99.90;;;;;;5012504;28;20075;-51
2024/01/01 00:58:41;;;;;;;3.70;2.40;;;21.30;99.90;;;;;;5012139;28;20072;-51
2024/01/01 01:01:07;;;;;;;2.63;2.00;;;21.30;99.90;;;;;;5024374;22;20065;-50
2024/01/01 01:03:35;;;;;;;2.30;1.77;;;21.20;99.90;;;;;;5012280;28;20382;-50
2024/01/01 01:06:02;;;;;;;2.40;1.83;;;21.30;99.90;;;;;;5012087;28;20033;-50
2024/01/01 01:08:27;;;;;;;3.83;2.05;;;21.20;99.90;;;;;;5012022;28;20382;-51
2024/01/01 01:10:53;;;;;;;3.00;1.90;;;21.20;99.90;;;;;;5012017;28;20026;-51
2024/01/01 01:13:19;;;;;;;2.97;2.10;;;21.20;99.90;;;;;;5012180;28;20038;-51
2024/01/01 01:15:45;;;;;;;2.33;1.90;;;21.20;99.90;;;;;;5011967;28;20030;-51
2024/01/01 01:18:11;;;;;;;2.80;2.10;;;21.20;99.90;;;;;;5010836;28;20441;-51
2024/01/01 01:20:37;;;;;;;2.90;2.13;;;21.20;99.90;;;;;;5011874;28;20029;-51
2024/01/01 01:23:03;;;;;;;3.75;2.30;;;21.20;99.90;;;;;;5012089;28;20030;-51
2024/01/01 01:25:30;;;;;;;2.80;2.08;;;21.20;99.90;;;;;;5010908;28;20022;-51
2024/01/01 01:27:57;;;;;;;2.13;1.77;;;21.20;99.90;;;;;;5010719;28;20026;-51
2024/01/01 01:30:23;;;;;;;3.65;2.00;;;21.20;99.90;;;;;;5012026;28;20034;-51
2024/01/01 01:32:49;;;;;;;2.53;1.80;;;21.10;99.90;;;;;;5012079;28;20088;-51
2024/01/01 01:35:15;;;;;;;3.10;2.17;;;21.10;99.90;;;;;;5011947;28;20438;-51
2024/01/01 01:37:41;;;;;;;2.08;1.52;;;21.20;99.90;;;;;;5012042;28;20084;-51
2024/01/01 01:40:07;;;;;;;2.00;1.65;;;21.10;99.90;;;;;;5011937;28;20466;-51
2024/01/01 01:42:33;;;;;;;3.70;1.70;;;21.20;99.90;;;;;;5011814;28;20038;-51
2024/01/01 01:44:59;;;;;;;3.08;1.80;;;21.10;99.90;;;;;;5011921;28;20084;-51
2024/01/01 01:47:25;;;;;;;3.17;1.73;;;21.20;99.90;;;;;;5011887;28;20163;-52
2024/01/01 01:49:52;;;;;;;2.73;1.70;;;21.10;99.90;;;;;;5014262;28;20036;-50
2024/01/01 01:52:21;;;;;;;2.80;2.00;;;21.10;99.90;;;;;;5014022;28;20034;-50
2024/01/01 01:54:49;;;;;;;2.25;1.73;;;21.20;99.90;;;;;;5015195;28;20026;-50
2024/01/01 01:57:15;;;;;;;2.05;1.77;;;21.10;99.90;;;;;;5015099;28;20033;-51
2024/01/01 01:59:44;;;;;;;2.20;1.77;;;21.10;99.90;;;;;;5015546;28;20018;-51
2024/01/01 02:02:11;;;;;;;2.88;2.10;;;21.10;99.90;;;;;;5025765;23;20058;-51
2024/01/01 02:04:37;;;;;;;2.05;1.60;;;21.10;99.90;;;;;;5015093;28;20068;-53
2024/01/01 02:07:03;;;;;;;2.70;1.75;;;21.10;99.90;;;;;;5013633;28;20036;-52
2024/01/01 02:09:32;;;;;;;3.28;2.08;;;21.10;99.90;;;;;;5014913;28;20120;-52
2024/01/01 02:11:59;;;;;;;3.42;2.10;;;21.10;99.90;;;;;;5014871;28;20034;-52
2024/01/01 02:14:24;;;;;;;1.88;1.67;;;21.10;99.90;;;;;;5014738;28;20057;-52
2024/01/01 02:16:51;;;;;;;2.30;1.75;;;21.10;99.90;;;;;;5014925;28;20064;-52
2024/01/01 02:19:19;;;;;;;1.75;1.63;;;21.10;99.90;;;;;;5014736;28;20025;-52
2024/01/01 02:21:46;;;;;;;2.67;1.67;;;21.10;99.90;;;;;;5014717;28;20071;-52
2024/01/01 02:24:11;;;;;;;3.17;2.00;;;21.10;99.90;;;;;;5014547;28;20486;-50
2024/01/01 02:26:37;;;;;;;2.20;1.83;;;21.10;99.90;;;;;;5014689;28;20050;-50
2024/01/01 02:29:03;;;;;;;2.17;1.70;;;21.10;99.90;;;;;;5014474;28;20025;-50
2024/01/01 02:31:29;;;;;;;3.25;1.60;;;21.10;99.90;;;;;;5014341;28;20103;-52
2024/01/01 02:33:54;;;;;;;1.50;1.40;;;21.00;99.90;;;;;;5013421;28;20026;-53
2024/01/01 02:36:23;;;;;;;2.47;1.55;;;21.00;99.90;;;;;;5014704;28;20033;-50
2024/01/01 02:38:49;;;;;;;2.25;1.55;;;21.10;99.90;;;;;;5013243;28;20032;-51
2024/01/01 02:41:15;;;;;;;2.50;1.75;;;21.00;99.90;;;;;;5014379;28;20100;-50
2024/01/01 02:43:41;;;;;;;3.65;1.70;;;21.00;99.90;;;;;;5014382;28;20374;-51
2024/01/01 02:46:06;;;;;;;2.13;1.70;;;21.00;99.90;;;;;;5014190;28;20029;-50
2024/01/01 02:48:32;;;;;;;1.90;1.38;;;21.00;99.90;;;;;;5014127;28;20033;-50
2024/01/01 02:50:58;;;;;;;2.13;1.45;;;21.00;99.90;;;;;;5013944;28;20109;-51
2024/01/01 02:53:24;;;;;;;3.10;1.80;;;21.00;99.90;;;;;;5014091;28;20038;-50
2024/01/01 02:55:49;;;;;;;2.00;1.60;;;21.00;99.90;;;;;;5012759;28;20026;-51
2024/01/01 02:58:15;;;;;;;1.77;1.33;;;21.00;99.90;;;;;;5013979;28;20022;-50
2024/01/01 03:00:41;;;;;;;1.63;1.50;;;21.00;99.90;;;;;;5025511;22;20137;-50
2024/01/01 03:03:07;;;;;;;2.05;1.38;;;21.00;99.90;;;;;;5014098;28;20053;-49
2024/01/01 03:05:33;;;;;;;1.58;1.40;;;21.00;99.90;;;;;;5013893;28;20030;-49
2024/01/01 03:07:58;;;;;;;1.50;1.40;;;21.00;99.90;;;;;;5014009;28;20444;-49
2024/01/01 03:10:24;;;;;;;2.08;1.50;;;21.00;99.90;;;;;;5014019;28;20022;-50
2024/01/01 03:12:50;;;;;;;2.75;2.08;;;21.00;99.90;;;;;;5013656;28;20482;-49
2024/01/01 03:15:17;;;;;;;2.33;1.50;;;21.00;99.90;;;;;;5013969;28;20461;-49
2024/01/01 03:17:45;;;;;;;1.80;1.55;;;20.90;99.90;;;;;;5013892;28;20030;-50
2024/01/01 03:20:11;;;;;;;2.13;1.75;;;20.90;99.90;;;;;;5014017;28;20024;-49
2024/01/01 03:22:37;;;;;;;3.30;1.50;;;21.00;99.90;;;;;;5012280;28;20034;-49
2024/01/01 03:25:03;;;;;;;1.75;1.40;;;20.90;99.90;;;;;;5013658;28;20029;-49
2024/01/01 03:27:29;;;;;;;2.15;1.95;;;20.90;99.90;;;;;;5013588;28;20482;-49
2024/01/01 03:29:55;;;;;;;3.10;1.45;;;20.90;99.90;;;;;;5013488;28;20034;-49
2024/01/01 03:32:21;;;;;;;2.00;1.52;;;20.90;99.90;;;;;;5013548;28;20069;-49
2024/01/01 03:34:47;;;;;;;1.95;1.60;;;20.90;99.90;;;;;;5013541;28;20047;-49
2024/01/01 03:37:13;;;;;;;1.55;1.30;;;20.90;99.90;;;;;;5013719;28;20397;-49
2024/01/01 03:39:39;;;;;;;2.33;1.67;;;20.90;99.90;;;;;;5013353;28;20037;-49
2024/01/01 03:42:04;;;;;;;2.83;1.30;;;20.90;99.90;;;;;;5013275;28;20025;-49
2024/01/01 03:44:30;;;;;;;1.88;1.48;;;20.90;99.90;;;;;;5013238;28;20040;-49
2024/01/01 03:46:56;;;;;;;1.83;1.45;;;20.90;99.90;;;;;;5013159;28;20025;-49
2024/01/01 03:49:22;;;;;;;2.25;1.25;;;20.80;99.90;;;;;;5013202;28;20022;-49
2024/01/01 03:51:48;;;;;;;2.25;1.45;;;20.90;99.90;;;;;;5012995;28;20482;-49
2024/01/01 03:54:14;;;;;;;3.40;2.25;;;20.90;99.90;;;;;;5013231;28;20109;-49
2024/01/01 03:56:40;;;;;;;1.85;1.58;;;20.90;99.90;;;;;;5013096;28;20539;-49
2024/01/01 03:59:06;;;;;;;2.05;1.35;;;20.80;99.90;;;;;;5013022;28;20026;-50
2024/01/01 04:01:31;;;;;;;2.35;1.73;;;20.80;99.90;;;;;;5025344;23;20077;-50
2024/01/01 04:04:03;;;;;;;2.08;1.30;;;20.80;99.90;;;;;;5011553;28;20079;-50
2024/01/01 04:06:29;;;;;;;1.63;1.40;;;20.80;99.90;;;;;;5013040;28;20048;-50
2024/01/01 04:08:54;;;;;;;1.38;1.13;;;20.80;99.90;;;;;;5012899;28;20014;-51
2024/01/01 04:11:20;;;;;;;1.30;1.20;;;20.80;99.90;;;;;;5012036;28;20558;-51
2024/01/01 04:13:46;;;;;;;1.65;1.35;;;20.80;99.90;;;;;;5012778;28;20036;-50
2024/01/01 04:16:12;;;;;;;2.20;1.73;;;20.80;99.90;;;;;;5012795;28;20028;-51
2024/01/01 04:18:39;;;;;;;1.98;1.23;;;20.80;99.90;;;;;;5012696;28;20030;-50
2024/01/01 04:21:05;;;;;;;2.05;1.55;;;20.80;99.90;;;;;;5012584;28;20019;-50
2024/01/01 04:23:31;;;;;;;1.70;1.30;;;20.80;99.90;;;;;;5012802;28;20091;-51
2024/01/01 04:25:57;;;;;;;1.48;1.27;;;20.80;99.90;;;;;;5011282;28;20026;-50
2024/01/01 04:28:22;;;;;;;2.00;1.25;;;20.80;99.90;;;;;;5012528;28;20021;-50
2024/01/01 04:30:48;;;;;;;1.70;1.30;;;20.70;99.90;;;;;;5012529;28;20029;-50
2024/01/01 04:33:14;;;;;;;1.90;1.20;;;20.80;99.90;;;;;;5012671;28;20044;-50
2024/01/01 04:35:40;;;;;;;2.80;1.25;;;20.70;99.90;;;;;;5012475;28;20029;-50
2024/01/01 04:38:06;;;;;;;1.52;1.33;;;20.70;99.90;;;;;;5012616;28;20065;-50
2024/01/01 04:40:32;;;;;;;4.00;1.60;;;20.70;99.90;;;;;;5012568;28;20022;-50
2024/01/01 04:42:59;;;;;;;1.55;1.42;;;20.70;99.90;;;;;;5012336;28;20025;-50
2024/01/01 04:45:25;;;;;;;1.73;1.33;;;20.70;99.90;;;;;;5012438;28;20033;-51
2024/01/01 04:47:51;;;;;;;1.70;1.13;;;20.70;99.90;;;;;;4995051;28;20026;-49
2024/01/01 04:50:17;;;;;;;1.55;1.33;;;20.70;99.90;;;;;;5012587;28;20511;-50
2024/01/01 04:52:43;;;;;;;2.95;0.90;;;20.70;99.90;;;;;;5012225;28;20386;-51
2024/01/01 04:55:09;;;;;;;1.55;1.38;;;20.70;99.90;;;;;;5012389;28;20363;-50
2024/01/01 04:57:35;;;;;;;2.17;1.10;;;20.70;99.90;;;;;;5012406;28;20367;-50
2024/01/01 05:00:01;;;;;;;2.60;1.13;;;20.70;99.90;;;;;;5012377;28;20026;-50
2024/01/01 05:02:27;;;;;;;1.23;1.00;;;20.70;99.90;;;;;;5012115;28;20512;-50
2024/01/01 05:04:53;;;;;;;1.52;1.33;;;20.70;99.90;;;;;;5012099;28;20026;-50
2024/01/01 05:07:19;;;;;;;0.75;0.75;;;20.70;99.90;;;;;;5012486;28;20053;-50
2024/01/01 05:09:45;;;;;;;2.47;1.25;;;20.60;99.90;;;;;;5012137;28;20025;-50
2024/01/01 05:12:13;;;;;;;1.40;1.30;;;20.60;99.90;;;;;;5012163;28;20034;-50
2024/01/01 05:14:39;;;;;;;2.92;1.10;;;20.70;99.90;;;;;;5012089;28;20030;-50
2024/01/01 05:17:05;;;;;;;1.27;0.82;;;20.60;99.90;;;;;;5012052;28;20033;-50
2024/01/01 05:19:31;;;;;;;0.70;0.70;;;20.60;99.90;;;;;;5012106;28;20041;-51
2024/01/01 05:21:58;;;;;;;1.23;1.02;;;20.60;99.90;;;;;;5012230;28;20026;-50
2024/01/01 05:24:23;;;;;;;1.60;1.20;;;20.60;99.90;;;;;;5015043;28;20105;-50
2024/01/01 05:26:49;;;;;;;1.75;1.55;;;20.60;99.90;;;;;;5016135;28;20434;-51
2024/01/01 05:29:15;;;;;;;1.90;1.35;;;20.60;99.90;;;;;;5014328;28;20028;-50
2024/01/01 05:31:41;;;;;;;1.60;1.30;;;20.60;99.90;;;;;;5015608;28;20882;-50
2024/01/01 05:34:06;;;;;;;1.25;0.98;;;20.60;99.90;;;;;;5015619;28;20101;-51
2024/01/01 05:36:32;;;;;;;1.60;1.30;;;20.60;99.90;;;;;;5015583;28;20022;-50
2024/01/01 05:38:58;;;;;;;1.42;1.13;;;20.60;99.90;;;;;;5015615;28;20072;-50
2024/01/01 05:41:24;;;;;;;1.58;1.20;;;20.60;99.90;;;;;;5015494;28;20065;-50
2024/01/01 05:43:50;;;;;;;1.27;0.93;;;20.60;99.90;;;;;;5015651;28;20033;-50
2024/01/01 05:46:16;;;;;;;1.20;1.10;;;20.60;99.90;;;;;;5015335;28;20030;-50
2024/01/01 05:48:41;;;;;;;1.30;1.00;;;20.60;99.90;;;;;;5015398;28;20462;-51
2024/01/01 05:51:08;;;;;;;1.20;0.98;;;20.60;99.90;;;;;;5015467;28;20057;-50
2024/01/01 05:53:34;;;;;;;1.17;0.90;;;20.50;99.90;;;;;;5015368;28;20041;-50
2024/01/01 05:56:00;;;;;;;1.10;0.95;;;20.60;99.90;;;;;;5015228;28;20026;-51
2024/01/01 05:58:26;;;;;;;1.10;0.80;;;20.60;99.90;;;;;;5014110;28;20068;-50
2024/01/01 06:00:51;;;;;;;1.20;1.10;;;20.60;99.90;;;;;;5015147;28;20045;-50
2024/01/01 06:03:17;;;;;;;1.08;0.80;;;20.60;99.90;;;;;;5015237;28;20022;-50
2024/01/01 06:05:43;;;;;;;1.30;1.00;;;20.60;99.90;;;;;;5015073;28;20494;-50
2024/01/01 06:08:09;;;;;;;1.25;0.93;;;20.60;99.90;;;;;;5015065;28;20026;-50
2024/01/01 06:10:34;;;;;;;1.48;0.93;;;20.60;99.90;;;;;;5015050;28;20080;-50
2024/01/01 06:13:02;;;;;;;1.27;1.10;;;20.60;99.90;;;;;;5013669;28;20046;-50
2024/01/01 06:15:28;;;;;;;0.93;0.82;;;20.60;99.90;;;;;;5013687;28;20104;-50
2024/01/01 06:17:54;;;;;;;1.10;0.80;;;20.60;99.90;;;;;;5013967;28;20134;-50
2024/01/01 06:20:19;;;;;;;1.83;1.08;;;20.60;99.90;;;;;;5015063;28;20094;-50
2024/01/01 06:22:48;;;;;;;1.02;0.93;;;20.60;99.90;;;;;;5014891;28;20072;-51
2024/01/01 06:25:14;;;;;;;1.15;1.02;;;20.60;99.90;;;;;;5014790;28;20648;-50
2024/01/01 06:27:40;;;;;;;1.15;1.00;;;20.60;99.90;;;;;;5014711;28;20116;-50
2024/01/01 06:30:06;;;;;;;1.42;1.00;;;20.60;99.90;;;;;;5014638;28;20101;-50
2024/01/01 06:32:32;;;;;;;2.13;1.33;;;20.60;99.90;;;;;;5014409;28;20092;-50
2024/01/01 06:34:58;;;;;;;1.50;1.00;;;20.60;99.90;;;;;;5013544;28;20026;-51
2024/01/01 06:37:24;;;;;;;1.15;1.05;;;20.60;99.90;;;;;;5014656;28;20088;-51
2024/01/01 06:39:50;;;;;;;1.30;1.10;;;20.50;99.90;;;;;;5013367;28;20033;-50
2024/01/01 06:42:17;;;;;;;1.58;1.25;;;20.50;99.90;;;;;;5014382;28;20030;-51
2024/01/01 06:44:45;;;;;;;1.40;1.30;;;20.60;99.90;;;;;;5014468;28;20022;-51
2024/01/01 06:47:11;;;;;;;1.42;1.13;;;20.60;99.90;;;;;;5014395;28;20034;-51
2024/01/01 06:49:37;;;;;;;1.80;1.00;;;20.50;99.90;;;;;;5014098;28;20075;-51
2024/01/01 06:52:07;;;;;;;1.30;1.00;;;20.60;99.90;;;;;;5014116;28;20033;-51
2024/01/01 06:54:33;;;;;;;1.52;1.33;;;20.50;99.90;;;;;;5014224;28;20134;-50
2024/01/01 06:56:59;;;;;;;1.15;1.00;;;20.60;99.90;;;;;;5014216;28;20157;-50
2024/01/01 06:59:31;;;;;;;1.15;1.05;;;20.50;99.90;;;;;;5014428;28;20478;-50
2024/01/01 07:01:58;;;;;;;1.88;1.00;;;20.50;99.90;;;;;;5013991;28;20056;-49
2024/01/01 07:04:25;;;;;;;1.33;0.93;;;20.50;99.90;;;;;;5013104;28;20034;-50
2024/01/01 07:06:51;;;;;;;3.38;1.23;;;20.50;99.90;;;;;;5012954;28;20041;-50
2024/01/01 07:09:17;;;;;;;1.23;1.10;;;20.50;99.90;;;;;;5012713;28;20489;-51
2024/01/01 07:11:44;;;;;;;2.47;1.05;;;20.50;99.90;;;;;;5013786;28;20037;-50
2024/01/01 07:14:10;;;;;;;1.45;1.35;;;20.50;99.90;;;;;;5013985;28;20060;-51
2024/01/01 07:16:36;;;;;;;2.35;1.30;;;20.50;99.90;;;;;;5012474;28;20065;-50
2024/01/01 07:19:02;;;;;;;1.38;1.10;;;20.50;99.90;;;;;;5013938;28;20092;-51
2024/01/01 07:21:28;;;;;;;1.52;1.20;;;20.50;99.90;;;;;;5012611;28;20101;-51
2024/01/01 07:23:54;;;;;;;2.17;1.30;;;20.50;99.90;;;;;;5013900;28;20105;-50
2024/01/01 07:26:20;;;;;;;1.83;1.27;;;20.50;99.90;;;;;;5013609;28;20108;-50
2024/01/01 07:28:46;;;;;;;2.75;1.50;;;20.50;99.90;;;;;;5013583;28;20037;-51
2024/01/01 07:31:12;;;;;;;1.80;1.08;;;20.50;99.90;;;;;;5013529;28;20037;-51
2024/01/01 07:33:38;;;;;;;1.90;1.40;;;20.50;99.90;;;;;;5013480;28;20113;-51
2024/01/01 07:36:08;;;;;;;2.03;1.10;;;20.50;99.90;;;;;;5013452;28;20508;-51
2024/01/01 07:38:34;;;;;;;1.70;1.15;;;20.50;99.90;;;;;;5013507;28;20084;-51
2024/01/01 07:41:00;;;;;;;1.65;1.25;;;20.50;99.90;;;;;;5013357;28;20462;-51
2024/01/01 07:43:26;;;;;;;2.33;1.30;;;20.50;99.90;;;;;;5013616;28;20432;-51
2024/01/01 07:45:52;;;;;;;1.40;1.10;;;20.50;99.90;;;;;;5013147;28;20034;-51
2024/01/01 07:48:18;;;;;;;1.83;1.20;;;20.50;99.90;;;;;;5013304;28;20033;-51
2024/01/01 07:50:44;;;;;;;2.05;1.35;;;20.40;99.90;;;;;;5013230;28;20026;-51
2024/01/01 07:53:10;;;;;;;1.38;1.20;;;20.40;99.90;;;;;;5013087;28;20062;-51
2024/01/01 07:55:36;;;;;;;2.97;1.10;;;20.40;99.90;;;;;;5013136;28;20025;-51
2024/01/01 07:58:02;;;;;;;1.88;0.98;;;20.50;99.90;;;;;;5011828;28;20021;-52
2024/01/01 08:00:28;;;;;;;1.58;1.10;;;20.40;99.90;;;;;;5013415;28;20022;-51
2024/01/01 08:02:54;;;;;;;2.08;1.40;;;20.40;99.90;;;;;;5013000;28;20462;-51
2024/01/01 08:05:20;;;;;;;2.22;1.30;;;20.40;99.90;;;;;;5012973;28;20030;-51
2024/01/01 08:07:47;;;;;;;2.05;1.50;;;20.40;99.90;;;;;;4995409;28;20026;-51
2024/01/01 08:10:14;;;;;;;;;;;20.40;99.90;;;;;;5013347;28;20022;-51
2024/01/01 08:12:40;;;;;;;1.83;1.20;;;20.40;99.90;;;;;;5013009;28;20269;-51
2024/01/01 08:15:06;;;;;;;1.98;1.38;;;20.40;99.90;;;;;;5012807;28;20041;-49
2024/01/01 08:17:32;;;;;;;1.20;1.10;;;20.40;99.90;;;;;;5012965;28;20030;-51
2024/01/01 08:19:58;;;;;;;2.08;1.40;;;20.40;99.90;;;;;;5011535;28;20113;-51
2024/01/01 08:22:24;;;;;;;3.15;1.63;;;20.40;99.90;;;;;;5013046;28;20038;-51
2024/01/01 08:24:49;;;;;;;1.42;1.13;;;20.40;99.90;;;;;;5012618;28;20026;-51
2024/01/01 08:27:15;;;;;;;1.55;1.20;;;20.40;99.90;;;;;;5011377;28;20053;-51
2024/01/01 08:29:42;;;;;;;1.67;1.10;;;20.40;99.90;;;;;;5012573;28;20057;-51
2024/01/01 08:32:08;;;;;;;1.95;1.30;;;20.40;99.90;;;;;;5011115;28;20141;-51
2024/01/01 08:34:34;;;;;;;2.05;1.50;;;20.40;99.90;;;;;;5012745;28;20104;-51
2024/01/01 08:37:01;;;;;;;1.13;1.02;;;20.40;99.90;;;;;;5012798;28;20018;-51
2024/01/01 08:39:27;;;;;;;1.02;0.90;;;20.40;99.90;;;;;;5012746;28;20473;-51
2024/01/01 08:41:53;;;;;;;1.50;1.10;;;20.40;99.90;;;;;;5012614;28;20030;-50
2024/01/01 08:44:19;;;;;;;3.17;1.17;;;20.40;99.90;;;;;;5012441;28;20022;-51
2024/01/01 08:46:45;;;;;;;1.77;1.25;;;20.40;99.90;;;;;;5012476;28;20109;-51
2024/01/01 08:49:11;;;;;;;2.47;1.20;;;20.40;99.90;;;;;;5012523;28;20022;-51
2024/01/01 08:51:37;;;;;;;1.67;1.08;;;20.40;99.90;;;;;;5012335;28;20104;-51
2024/01/01 08:54:05;;;;;;;3.35;1.02;;;20.40;99.90;;;;;;5012191;28;20088;-51
2024/01/01 08:56:32;;;;;;;1.60;1.35;;;20.40;99.90;;;;;;5012444;28;20022;-51
2024/01/01 08:58:58;;;;;;;1.13;1.02;;;20.50;99.90;;;;;;5013534;28;20482;-51
2024/01/01 09:01:24;;;;;;;1.40;1.10;;;20.50;99.90;;;;;;5016093;28;20053;-51
2024/01/01 09:03:49;;;;;;;1.50;1.25;;;20.50;99.90;;;;;;5016145;28;20104;-51
2024/01/01 09:06:15;;;;;;;1.45;0.90;;;20.50;99.90;;;;;;5016178;28;20093;-51
2024/01/01 09:08:43;;;;;;;1.52;1.30;;;20.50;99.90;;;;;;5015949;28;20033;-51
2024/01/01 09:11:09;;;;;;;1.13;1.02;;;20.60;99.90;;;;;;5016107;28;20029;-51
2024/01/01 09:13:34;;;;;;;2.15;1.33;;;20.50;99.90;;;;;;5016143;28;20046;-51
2024/01/01 09:16:01;;;;;;;1.48;1.10;;;20.60;99.90;;;;;;5016203;28;20034;-51
2024/01/01 09:18:27;;;;;;;1.73;1.50;;;20.60;99.90;;;;;;5014718;28;20041;-55
2024/01/01 09:20:53;;;;;;;1.92;1.20;;;20.60;99.90;;;;;;5015868;28;20025;-51
2024/01/01 09:23:18;;;;;;;1.80;1.00;;;20.70;99.90;;;;;;5015972;28;20385;-51
2024/01/01 09:25:44;;;;;;;1.40;1.08;;;20.70;99.90;;;;;;5015841;28;20463;-51
2024/01/01 09:28:10;;;;;;;1.45;1.15;;;20.80;99.90;;;;;;5014600;28;20018;-51
2024/01/01 09:30:36;;;;;;;1.73;1.50;;;20.80;99.90;;;;;;5014409;28;20034;-51
2024/01/01 09:33:02;;;;;;;1.50;1.00;;;20.80;99.90;;;;;;5015900;28;20034;-51
2024/01/01 09:35:27;;;;;;;1.70;1.33;;;20.90;99.90;;;;;;5015632;28;20018;-51
2024/01/01 09:37:54;;;;;;;1.63;1.35;;;20.90;99.90;;;;;;5015712;28;20112;-51
2024/01/01 09:40:23;;;;;;;1.50;1.20;;;21.00;99.90;;;;;;5015596;28;20117;-51
2024/01/01 09:42:52;;;;;;;1.70;1.33;;;21.00;99.90;;;;;;5014306;28;20022;-51
2024/01/01 09:45:18;;;;;;;1.90;1.20;;;21.00;99.90;;;;;;5015581;28;20030;-51
2024/01/01 09:47:44;;;;;;;1.73;1.42;;;21.10;99.90;;;;;;5015415;28;20060;-51
2024/01/01 09:50:10;;;;;;;2.97;1.48;;;21.20;99.90;;;;;;5015353;28;20398;-51
2024/01/01 09:52:36;;;;;;;1.42;0.98;;;21.20;99.90;;;;;;5015295;28;20033;-51
2024/01/01 09:55:03;;;;;;;2.58;1.70;;;21.20;99.90;;;;;;5015630;28;20021;-51
2024/01/01 09:57:29;;;;;;;1.60;1.25;;;21.30;99.90;;;;;;5015220;28;20022;-51
2024/01/01 09:59:54;;;;;;;1.50;1.10;;;21.30;99.90;;;;;;5015246;28;20022;-51
2024/01/01 10:02:28;;;;;;;2.00;1.30;;;21.40;99.90;;;;;;5015060;28;20101;-51
2024/01/01 10:05:12;;;;;;;1.67;1.50;;;21.40;99.90;;;;;;5015143;28;20025;-51
2024/01/01 10:07:38;;;;;;;1.58;1.20;;;21.50;99.90;;;;;;5015178;28;20030;-52
2024/01/01 10:10:04;;;;;;;1.55;1.17;;;21.60;99.90;;;;;;5015350;28;20110;-51
2024/01/01 10:12:32;;;;;;;1.45;1.33;;;21.60;99.90;;;;;;5014960;28;20046;-52
2024/01/01 10:14:59;;;;;;;1.55;1.35;;;21.70;99.90;;;;;;5014844;28;20532;-52
2024/01/01 10:17:24;;;;;;;1.52;1.23;;;21.70;99.90;;;;;;5014847;28;20045;-52
2024/01/01 10:19:56;;;;;;;1.58;1.42;;;21.80;99.90;;;;;;5014916;28;20363;-52
2024/01/01 10:22:27;;;;;;;1.52;1.10;;;21.80;99.90;;;;;;5014981;28;20427;-51
2024/01/01 10:25:08;;;;;;;1.55;1.20;;;21.80;99.90;;;;;;5014794;28;20029;-51
2024/01/01 10:27:35;;;;;;;1.52;1.00;;;21.90;99.90;;;;;;5014819;28;20033;-52
2024/01/01 10:30:02;;;;;;;2.92;1.38;;;22.00;99.90;;;;;;5014644;28;20030;-52
2024/01/01 10:32:29;;;;;;;2.00;1.30;;;22.00;99.90;;;;;;5014477;28;20477;-52
2024/01/01 10:34:57;;;;;;;1.77;1.42;;;22.10;99.90;;;;;;5014698;28;20445;-51
2024/01/01 10:37:25;;;;;;;1.42;1.33;;;22.10;99.90;;;;;;5014415;28;20022;-52
2024/01/01 10:39:53;;;;;;;1.52;1.20;;;22.20;99.90;;;;;;5014471;28;20401;-52
2024/01/01 10:42:20;;;;;;;1.23;1.00;;;22.20;99.90;;;;;;5014506;28;20018;-52
2024/01/01 10:44:45;;;;;;;1.63;1.30;;;22.30;99.90;;;;;;5014610;28;20026;-51
2024/01/01 10:47:12;;;;;;;1.50;1.13;;;22.40;99.90;;;;;;5014479;28;20036;-52
2024/01/01 10:49:56;;;;;;;1.25;1.13;;;22.40;99.90;;;;;;4996930;28;20466;-52
2024/01/01 10:52:58;;;;;;;1.85;1.60;;;22.40;99.90;;;;;;5014324;28;20049;-52
2024/01/01 10:55:43;;;;;;;1.83;1.48;;;22.50;99.90;;;;;;5014348;28;20050;-53
2024/01/01 10:58:23;;;;;;;1.75;1.40;;;22.50;99.90;;;;;;5014043;28;20084;-53
2024/01/01 11:01:07;;;;;;;1.67;1.23;;;22.50;99.90;;;;;;5012699;28;20032;-53
2024/01/01 11:03:34;;;;;;;2.08;1.60;;;22.60;99.90;;;;;;5013966;28;20481;-50
2024/01/01 11:06:33;;;;;;;1.20;0.90;;;22.70;99.90;;;;;;5013857;28;20030;-52
2024/01/01 11:09:17;;;;;;;1.77;1.60;;;22.70;99.90;;;;;;5012632;28;20050;-53
2024/01/01 11:11:54;;;;;;;1.30;1.08;;;22.70;99.90;;;;;;5014049;28;20390;-53
2024/01/01 11:14:34;;;;;;;2.20;1.23;;;22.70;99.90;;;;;;5012573;28;20033;-53
2024/01/01 11:17:06;;;;;;;1.50;1.10;;;22.80;99.90;;;;;;5013763;28;20559;-53
2024/01/01 11:19:48;;;;;;;1.40;1.00;;;22.80;99.90;;;;;;5013792;28;20033;-53
2024/01/01 11:22:20;;;;;;;1.77;1.35;;;22.90;99.90;;;;;;5012101;28;20025;-52
2024/01/01 11:24:47;;;;;;;2.08;1.35;;;22.90;99.90;;;;;;5013827;28;20022;-52
2024/01/01 11:27:33;;;;;;;1.92;1.40;;;22.90;99.90;;;;;;5013649;28;20466;-53
2024/01/01 11:30:07;;;;;;;1.95;1.33;;;22.90;99.90;;;;;;5013587;28;20088;-53
2024/01/01 11:32:34;;;;;;;2.53;1.33;;;23.00;99.90;;;;;;5013401;28;20478;-53
2024/01/01 11:35:05;;;;;;;1.48;1.25;;;23.10;99.90;;;;;;5013471;28;20088;-52
2024/01/01 11:37:31;;;;;;;1.65;1.40;;;23.10;99.90;;;;;;5013475;28;20524;-53
2024/01/01 11:40:01;;;;;;;1.27;0.90;;;23.10;99.90;;;;;;5013356;28;20026;-53
2024/01/01 11:42:27;;;;;;;1.95;1.55;;;23.10;99.90;;;;;;5011976;28;20026;-53
2024/01/01 11:45:18;;;;;;;1.73;1.42;;;23.20;99.90;;;;;;5013208;28;20141;-52
2024/01/01 11:47:45;;;;;;;1.60;1.38;;;23.20;99.90;;;;;;5013124;28;20022;-52
2024/01/01 11:50:12;;;;;;;3.28;1.40;;;23.20;99.90;;;;;;5013409;28;20022;-52
2024/01/01 11:52:38;;;;;;;2.28;1.17;;;23.30;99.90;;;;;;5011955;28;20049;-53
2024/01/01 11:55:05;;;;;;;2.40;1.40;;;23.30;99.90;;;;;;5012929;28;20031;-52
2024/01/01 11:57:31;;;;;;;2.15;1.40;;;23.30;99.90;;;;;;5013167;28;20485;-52
2024/01/01 11:59:57;;;;;;;1.52;1.25;;;23.30;99.90;;;;;;5013109;28;20443;-53
2024/01/01 12:02:23;;;;;;;1.77;1.35;;;23.40;99.90;;;;;;5012897;28;20045;-52
2024/01/01 12:04:54;;;;;;;1.20;1.10;;;23.40;99.90;;;;;;5013007;28;20029;-53
2024/01/01 12:07:34;;;;;;;1.60;1.33;;;23.40;99.90;;;;;;5011548;28;20101;-53
2024/01/01 12:10:11;;;;;;;1.52;1.17;;;23.50;99.90;;;;;;5012735;28;20022;-52
2024/01/01 12:12:41;;;;;;;1.77;1.40;;;23.50;99.90;;;;;;5012783;28;20105;-52
2024/01/01 12:15:22;;;;;;;1.63;1.40;;;23.50;99.90;;;;;;5012899;28;20030;-53
2024/01/01 12:17:52;;;;;;;1.88;1.55;;;23.50;99.90;;;;;;5013218;28;20386;-54
2024/01/01 12:20:19;;;;;;;2.95;1.52;;;23.50;99.90;;;;;;5011443;28;20030;-54
2024/01/01 12:22:48;;;;;;;1.83;1.52;;;23.60;99.90;;;;;;5012724;28;20076;-53
2024/01/01 12:25:22;;;;;;;1.92;1.73;;;23.60;99.90;;;;;;5012730;28;20057;-53
2024/01/01 12:28:07;;;;;;;2.42;1.42;;;23.70;99.90;;;;;;5012550;28;20072;-53
2024/01/01 12:30:34;;;;;;;2.20;1.55;;;23.70;99.90;;;;;;5012444;28;20476;-52
2024/01/01 12:33:00;;;;;;;3.53;1.80;;;23.70;99.90;;;;;;5010419;28;20040;-53
2024/01/01 12:35:26;;;;;;;3.10;2.08;;;23.70;99.90;;;;;;5012455;28;20058;-51
2024/01/01 12:37:52;;;;;;;2.00;1.63;;;23.70;99.90;;;;;;5012429;28;20115;-53
2024/01/01 12:40:18;;;;;;;2.70;2.10;;;23.80;99.90;;;;;;5012507;28;20026;-53
2024/01/01 12:42:46;;;;;;;2.60;1.88;;;23.80;99.90;;;;;;5012416;28;20148;-55
2024/01/01 12:45:16;;;;;;;;;;;23.80;99.90;;;;;;5012845;28;20033;-52
2024/01/01 12:47:42;;;;;;;2.92;1.67;;;23.80;99.90;;;;;;5012597;28;19906;-53